Time;durP1;ratioP1;P1;durP2;ratioP2;P2;SDS_P1;SDS_P2;PMS_P1;PMS_P2;Temp;Humidity;BMP_temperature;BMP_pressure;BME280_temperature;BME280_humidity;BME280_pressure;Samples;Min_cycle;Max_cycle;Signal;HPM_P1;HPM_P2
2022/06/06 00:00:30;;;;;;;0.30;0.30;;;22.50;59.10;;;;;;5033602;28;20046;-19
2022/06/06 00:02:56;;;;;;;0.20;0.20;;;22.40;59.00;;;;;;5033192;28;20087;-19
2022/06/06 00:05:21;;;;;;;0.40;0.40;;;22.40;59.10;;;;;;5030941;28;20052;-19
2022/06/06 00:07:47;;;;;;;0.40;0.40;;;22.40;59.10;;;;;;5033454;28;20037;-19
2022/06/06 00:10:12;;;;;;;0.40;0.40;;;22.40;59.00;;;;;;5031146;28;20554;-19
2022/06/06 00:12:38;;;;;;;0.40;0.30;;;22.40;59.00;;;;;;5033147;28;20041;-20
2022/06/06 00:15:04;;;;;;;0.25;0.25;;;22.40;59.00;;;;;;5020303;28;20046;-19
2022/06/06 00:17:30;;;;;;;0.47;0.22;;;22.40;59.00;;;;;;5019981;28;20037;-18
2022/06/06 00:19:55;;;;;;;0.30;0.30;;;22.40;59.00;;;;;;5032316;28;20052;-19
2022/06/06 00:22:21;;;;;;;0.30;0.30;;;22.40;59.00;;;;;;5023727;28;20077;-20
2022/06/06 00:24:46;;;;;;;0.25;0.20;;;22.40;59.10;;;;;;5030966;28;20102;-18
2022/06/06 00:27:12;;;;;;;0.30;0.30;;;22.40;59.00;;;;;;5029553;28;20045;-19
2022/06/06 00:29:37;;;;;;;0.32;0.30;;;22.40;59.10;;;;;;5022998;28;20057;-18
2022/06/06 00:34:54;;;;;;;0.25;0.25;;;22.40;59.00;;;;;;5037388;28;20060;-19
2022/06/06 00:37:27;;;;;;;0.30;0.30;;;22.40;59.00;;;;;;5036829;28;20048;-22
2022/06/06 00:39:53;;;;;;;0.30;0.30;;;22.40;59.00;;;;;;5038281;28;20049;-19
2022/06/06 00:42:23;;;;;;;0.40;0.40;;;22.40;59.10;;;;;;5035055;28;20103;-19
2022/06/06 00:44:48;;;;;;;0.50;0.45;;;22.40;59.10;;;;;;5037031;28;20049;-19
2022/06/06 00:47:24;;;;;;;0.63;0.40;;;22.30;59.10;;;;;;5022777;28;20042;-19
2022/06/06 00:49:54;;;;;;;0.20;0.20;;;22.40;59.10;;;;;;5061446;28;20049;-18
2022/06/06 00:52:46;;;;;;;0.30;0.30;;;22.40;59.10;;;;;;5066918;28;20048;-18
2022/06/06 00:55:15;;;;;;;0.20;0.20;;;22.40;59.20;;;;;;5036945;28;20068;-18
2022/06/06 00:57:44;;;;;;;0.20;0.20;;;22.40;59.10;;;;;;5035787;28;20167;-19
2022/06/06 01:00:12;;;;;;;0.30;0.30;;;22.40;59.10;;;;;;5018792;28;20048;-19
2022/06/06 01:02:39;;;;;;;0.10;0.10;;;22.40;59.10;;;;;;5028968;28;20037;-18
2022/06/06 01:05:06;;;;;;;0.30;0.30;;;22.30;59.10;;;;;;5035761;28;20450;-19
2022/06/06 01:07:31;;;;;;;0.28;0.28;;;22.30;59.20;;;;;;5033872;28;20113;-19
2022/06/06 01:09:57;;;;;;;0.30;0.30;;;22.30;59.10;;;;;;5024544;28;20072;-17
2022/06/06 01:12:23;;;;;;;0.50;0.30;;;22.30;59.10;;;;;;5027468;28;20111;-18
2022/06/06 01:14:51;;;;;;;0.43;0.35;;;22.30;59.20;;;;;;5037645;28;20042;-19
2022/06/06 01:17:50;;;;;;;0.30;0.13;;;22.30;59.10;;;;;;5025968;28;20667;-19
2022/06/06 01:20:25;;;;;;;0.20;0.17;;;22.30;59.10;;;;;;5024434;28;20065;-18
2022/06/06 01:23:28;;;;;;;0.30;0.20;;;22.30;59.10;;;;;;5034249;28;20055;-18
2022/06/06 01:25:58;;;;;;;0.45;0.20;;;22.30;59.20;;;;;;5023950;28;20125;-18
2022/06/06 01:28:44;;;;;;;0.20;0.20;;;22.30;59.20;;;;;;5016044;28;20045;-18
2022/06/06 01:31:15;;;;;;;0.25;0.25;;;22.30;59.20;;;;;;5015740;28;20073;-18
2022/06/06 01:33:49;;;;;;;0.25;0.25;;;22.30;59.20;;;;;;5047987;28;20053;-19
2022/06/06 01:36:14;;;;;;;0.22;0.20;;;22.30;59.20;;;;;;5025101;28;20049;-19
2022/06/06 01:38:40;;;;;;;0.30;0.30;;;22.30;59.10;;;;;;5021277;28;20045;-19
2022/06/06 01:41:11;;;;;;;0.40;0.40;;;22.30;59.10;;;;;;5022485;28;20052;-18
2022/06/06 01:43:42;;;;;;;0.43;0.20;;;22.30;59.80;;;;;;5021592;28;20057;-19
2022/06/06 01:46:22;;;;;;;0.50;0.20;;;22.30;59.20;;;;;;5031453;28;20041;-19
2022/06/06 01:48:48;;;;;;;0.17;0.17;;;22.30;59.20;;;;;;5024300;28;20046;-25
2022/06/06 01:51:18;;;;;;;1.10;0.50;;;22.30;59.10;;;;;;5021679;28;20438;-17
2022/06/06 01:53:44;;;;;;;0.30;0.30;;;22.30;59.20;;;;;;5021517;28;20088;-20
2022/06/06 01:56:18;;;;;;;0.28;0.20;;;22.30;59.10;;;;;;5023815;28;20065;-19
2022/06/06 01:58:43;;;;;;;0.50;0.25;;;22.30;59.20;;;;;;5019468;28;20046;-19
2022/06/06 02:01:10;;;;;;;0.38;0.30;;;22.30;59.20;;;;;;5011811;28;20139;-19
2022/06/06 02:03:35;;;;;;;0.20;0.20;;;22.30;59.30;;;;;;5023592;28;20523;-18
2022/06/06 02:06:02;;;;;;;0.20;0.20;;;22.30;59.20;;;;;;5016851;28;20403;-19
2022/06/06 02:08:28;;;;;;;0.57;0.20;;;22.30;59.20;;;;;;5013123;28;20046;-19
2022/06/06 02:10:53;;;;;;;0.30;0.30;;;22.20;59.10;;;;;;5006878;28;20038;-19
2022/06/06 02:13:19;;;;;;;0.22;0.10;;;22.30;59.20;;;;;;5016152;28;20057;-18
2022/06/06 02:15:45;;;;;;;0.20;0.20;;;22.30;59.20;;;;;;5008601;28;20068;-18
2022/06/06 02:18:10;;;;;;;0.20;0.17;;;22.30;59.30;;;;;;5019497;28;20042;-19
2022/06/06 02:20:36;;;;;;;0.20;0.20;;;22.20;59.30;;;;;;5037517;28;20446;-19
2022/06/06 02:23:01;;;;;;;0.20;0.20;;;22.20;59.20;;;;;;5012753;28;20042;-19
2022/06/06 02:25:28;;;;;;;0.20;0.20;;;22.20;59.20;;;;;;5005183;28;20065;-19
2022/06/06 02:27:54;;;;;;;0.20;0.20;;;22.20;59.20;;;;;;5021073;28;20046;-18
2022/06/06 02:30:22;;;;;;;0.22;0.20;;;22.20;59.20;;;;;;5015230;28;20072;-19
2022/06/06 02:32:47;;;;;;;0.38;0.32;;;22.20;59.20;;;;;;5020823;28;20106;-18
2022/06/06 02:35:17;;;;;;;0.40;0.28;;;22.20;59.20;;;;;;5026406;28;20041;-18
2022/06/06 02:37:44;;;;;;;0.15;0.10;;;22.20;59.30;;;;;;5023155;28;20082;-18
2022/06/06 02:40:11;;;;;;;0.15;0.10;;;22.20;59.20;;;;;;5021019;28;20113;-18
2022/06/06 02:42:37;;;;;;;0.10;0.10;;;22.20;59.30;;;;;;5020206;28;20041;-19
2022/06/06 02:45:04;;;;;;;0.10;0.10;;;22.20;59.30;;;;;;5034904;28;20421;-19
2022/06/06 02:47:30;;;;;;;0.20;0.20;;;22.20;59.30;;;;;;5033312;28;20061;-19
2022/06/06 02:49:55;;;;;;;0.30;0.30;;;22.20;59.30;;;;;;5023060;28;20030;-18
2022/06/06 02:52:21;;;;;;;0.15;0.10;;;22.20;59.40;;;;;;5008653;28;20388;-18
2022/06/06 02:54:47;;;;;;;0.20;0.10;;;22.20;59.30;;;;;;5015447;28;20038;-18
2022/06/06 02:57:12;;;;;;;0.17;0.13;;;22.20;59.40;;;;;;5014724;28;20050;-19
2022/06/06 02:59:38;;;;;;;0.30;0.20;;;22.20;59.40;;;;;;5009730;28;20045;-18
2022/06/06 03:02:03;;;;;;;0.20;0.10;;;22.20;59.40;;;;;;5002876;28;20046;-18
2022/06/06 03:04:30;;;;;;;0.10;0.10;;;22.20;59.40;;;;;;5014348;28;20058;-19
2022/06/06 03:07:02;;;;;;;0.40;0.40;;;22.20;59.40;;;;;;5015717;28;20091;-19
2022/06/06 03:09:50;;;;;;;0.20;0.10;;;22.20;59.50;;;;;;5014137;28;20408;-19
2022/06/06 03:12:22;;;;;;;0.30;0.20;;;22.20;59.40;;;;;;5010498;28;20129;-18
2022/06/06 03:15:03;;;;;;;0.20;0.20;;;22.20;59.30;;;;;;5005914;28;20050;-17
2022/06/06 03:20:50;;;;;;;0.20;0.20;;;22.20;60.00;;;;;;5011809;28;20534;-18
2022/06/06 03:23:33;;;;;;;0.13;0.13;;;22.20;59.40;;;;;;5003566;28;20050;-19
2022/06/06 03:26:13;;;;;;;0.60;0.22;;;22.20;59.30;;;;;;5006730;28;20131;-18
2022/06/06 03:28:52;;;;;;;0.55;0.22;;;22.10;59.20;;;;;;5032897;28;20142;-18
2022/06/06 03:31:46;;;;;;;0.32;0.20;;;22.20;59.40;;;;;;5033278;28;20037;-18
2022/06/06 03:34:14;;;;;;;0.38;0.10;;;22.10;59.40;;;;;;5022425;28;20046;-18
2022/06/06 03:36:43;;;;;;;0.17;0.13;;;22.10;59.30;;;;;;5019171;28;20080;-18
2022/06/06 03:39:16;;;;;;;0.10;0.10;;;22.20;59.40;;;;;;5032945;28;20406;-18
2022/06/06 03:41:56;;;;;;;0.20;0.10;;;22.20;59.40;;;;;;5032813;28;20041;-19
2022/06/06 03:44:25;;;;;;;0.20;0.20;;;22.10;59.30;;;;;;5023577;28;20046;-19
2022/06/06 03:47:06;;;;;;;0.20;0.20;;;22.10;59.30;;;;;;5034487;28;20414;-18
2022/06/06 03:49:54;;;;;;;0.10;0.10;;;22.10;59.30;;;;;;5031814;28;20057;-19
2022/06/06 03:52:31;;;;;;;0.52;0.20;;;22.10;59.30;;;;;;5019972;28;20068;-19
2022/06/06 03:55:15;;;;;;;0.17;0.17;;;22.10;59.30;;;;;;5031667;28;20573;-18
2022/06/06 03:57:42;;;;;;;;;;;22.10;59.30;;;;;;5028090;28;20041;-19
2022/06/06 04:00:14;;;;;;;0.10;0.10;;;22.10;59.40;;;;;;5032598;28;20003;-18
2022/06/06 04:02:42;;;;;;;0.28;0.13;;;22.10;59.20;;;;;;5029123;28;20046;-19
2022/06/06 04:05:13;;;;;;;0.22;0.10;;;22.10;59.20;;;;;;5022686;28;20045;-20
2022/06/06 04:07:38;;;;;;;0.32;0.10;;;22.10;59.30;;;;;;5014536;28;20053;-18
2022/06/06 04:10:05;;;;;;;0.20;0.20;;;22.10;59.30;;;;;;5032372;28;20068;-18
2022/06/06 04:12:55;;;;;;;0.10;0.10;;;22.10;59.30;;;;;;5027422;28;20869;-18
2022/06/06 04:15:41;;;;;;;0.17;0.15;;;22.10;59.30;;;;;;5037192;28;20121;-19
2022/06/06 04:18:36;;;;;;;0.13;0.10;;;22.10;59.30;;;;;;5069007;28;20056;-19
2022/06/06 04:21:20;;;;;;;0.20;0.20;;;22.10;59.30;;;;;;5017088;28;20038;-18
2022/06/06 04:24:05;;;;;;;0.10;0.10;;;22.10;59.30;;;;;;5024265;28;20107;-19
2022/06/06 04:26:53;;;;;;;0.13;0.13;;;22.10;59.30;;;;;;5018089;28;20048;-18
2022/06/06 04:29:41;;;;;;;0.10;0.10;;;22.10;59.30;;;;;;5034247;28;20050;-18
2022/06/06 04:32:10;;;;;;;0.22;0.20;;;22.10;59.30;;;;;;5033561;28;20600;-19
2022/06/06 04:35:17;;;;;;;0.10;0.10;;;22.10;59.20;;;;;;5033904;28;20257;-18
2022/06/06 04:37:51;;;;;;;0.68;0.10;;;22.10;59.40;;;;;;5022119;28;20045;-19
2022/06/06 04:40:38;;;;;;;0.38;0.20;;;22.10;59.40;;;;;;5026797;28;20052;-19
2022/06/06 04:43:27;;;;;;;0.40;0.30;;;22.10;59.30;;;;;;5035861;28;20045;-19
2022/06/06 04:46:01;;;;;;;0.10;0.10;;;22.00;59.30;;;;;;5031457;28;20059;-19
2022/06/06 04:48:26;;;;;;;0.20;0.20;;;22.10;59.30;;;;;;5030791;28;20037;-19
2022/06/06 04:50:52;;;;;;;0.17;0.10;;;22.10;59.30;;;;;;5031812;28;20044;-19
2022/06/06 04:53:20;;;;;;;0.10;0.10;;;22.10;59.30;;;;;;5023713;28;20429;-18
2022/06/06 04:55:46;;;;;;;0.15;0.10;;;22.10;59.30;;;;;;5018178;28;20050;-19
2022/06/06 04:58:12;;;;;;;0.20;0.20;;;22.10;59.40;;;;;;5028501;28;20136;-18
2022/06/06 05:00:38;;;;;;;0.20;0.20;;;22.10;59.40;;;;;;5023635;28;20068;-18
2022/06/06 05:03:04;;;;;;;0.28;0.10;;;22.10;59.30;;;;;;5023412;28;20096;-20
2022/06/06 05:05:39;;;;;;;0.28;0.10;;;22.00;59.30;;;;;;5018852;28;20101;-18
2022/06/06 05:08:24;;;;;;;0.10;0.10;;;22.00;59.30;;;;;;5032401;28;20469;-19
2022/06/06 05:11:03;;;;;;;0.10;0.10;;;22.10;59.30;;;;;;5003431;28;20406;-18
2022/06/06 05:13:28;;;;;;;0.22;0.17;;;22.00;59.30;;;;;;5034637;28;20056;-18
2022/06/06 05:16:03;;;;;;;0.30;0.15;;;22.00;59.30;;;;;;5033026;28;20053;-18
2022/06/06 05:18:54;;;;;;;0.10;0.10;;;22.00;59.30;;;;;;5035781;28;20522;-18
2022/06/06 05:21:32;;;;;;;0.32;0.10;;;22.00;59.30;;;;;;5031460;28;20049;-19
2022/06/06 05:24:03;;;;;;;0.10;0.10;;;22.00;59.40;;;;;;5030546;28;20050;-18
2022/06/06 05:26:34;;;;;;;0.03;0.03;;;22.10;59.30;;;;;;5050265;28;20049;-19
2022/06/06 05:29:03;;;;;;;0.10;0.10;;;22.00;59.30;;;;;;5035716;28;20140;-19
2022/06/06 05:31:53;;;;;;;0.10;0.10;;;22.00;59.30;;;;;;5034823;28;20041;-19
2022/06/06 05:34:24;;;;;;;0.30;0.20;;;22.00;59.30;;;;;;5036242;28;20049;-18
2022/06/06 05:36:59;;;;;;;0.20;0.20;;;22.00;59.30;;;;;;5068107;28;20176;-17
2022/06/06 05:39:49;;;;;;;0.22;0.22;;;22.00;59.30;;;;;;5017546;28;20049;-19
2022/06/06 05:42:36;;;;;;;0.10;0.10;;;22.00;59.40;;;;;;5024090;28;20054;-18
2022/06/06 05:45:17;;;;;;;0.17;0.13;;;22.00;59.20;;;;;;5014894;28;20049;-19
2022/06/06 05:47:58;;;;;;;0.10;0.10;;;22.00;59.50;;;;;;4999858;28;20043;-18
2022/06/06 05:50:41;;;;;;;0.10;0.10;;;22.00;59.40;;;;;;5005897;28;20515;-19
2022/06/06 05:53:21;;;;;;;0.10;0.10;;;22.00;59.30;;;;;;5017101;28;20100;-19
2022/06/06 05:56:15;;;;;;;0.10;0.10;;;22.00;59.40;;;;;;5008431;28;20411;-19
2022/06/06 05:58:40;;;;;;;0.10;0.10;;;22.00;59.30;;;;;;5015308;28;20560;-19
2022/06/06 06:01:19;;;;;;;0.20;0.20;;;22.00;59.30;;;;;;5022660;28;20440;-19
2022/06/06 06:03:56;;;;;;;0.20;0.10;;;22.00;59.40;;;;;;5021555;28;20042;-19
2022/06/06 06:06:31;;;;;;;0.20;0.20;;;22.00;59.40;;;;;;5023630;28;20054;-20
2022/06/06 06:09:05;;;;;;;0.10;0.10;;;21.90;59.40;;;;;;5022361;28;20046;-18
2022/06/06 06:11:48;;;;;;;0.10;0.10;;;21.90;59.50;;;;;;5032250;28;20051;-19
2022/06/06 06:14:25;;;;;;;0.17;0.10;;;22.00;59.40;;;;;;5064117;28;20148;-20
2022/06/06 06:16:58;;;;;;;0.10;0.10;;;21.90;59.50;;;;;;5003777;28;20057;-17
2022/06/06 06:19:32;;;;;;;0.30;0.10;;;21.90;59.40;;;;;;5030128;28;20048;-17
2022/06/06 06:21:58;;;;;;;0.15;0.15;;;22.00;59.50;;;;;;4683962;28;9999728;-20
2022/06/06 06:24:27;;;;;;;0.10;0.10;;;22.00;59.60;;;;;;5010612;28;20050;-19
2022/06/06 06:26:54;;;;;;;0.10;0.10;;;22.00;59.70;;;;;;5040098;28;20049;-18
2022/06/06 06:29:20;;;;;;;0.20;0.15;;;21.90;59.80;;;;;;5025485;28;20522;-19
2022/06/06 06:31:48;;;;;;;0.20;0.20;;;21.90;59.90;;;;;;5007494;28;20388;-19
2022/06/06 06:34:29;;;;;;;0.52;0.50;;;21.90;60.30;;;;;;5002751;28;20478;-19
2022/06/06 06:37:09;;;;;;;0.77;0.40;;;21.70;58.60;;;;;;5026922;28;20049;-18
2022/06/06 06:39:54;;;;;;;2.22;0.60;;;21.40;58.80;;;;;;5032837;28;20041;-18
2022/06/06 06:42:37;;;;;;;0.88;0.40;;;21.00;59.70;;;;;;5027881;28;20053;-19
2022/06/06 06:45:14;;;;;;;0.95;0.50;;;20.90;59.80;;;;;;5006662;28;20056;-19
2022/06/06 06:47:39;;;;;;;1.95;0.80;;;20.70;60.40;;;;;;5004186;28;20056;-18
2022/06/06 06:50:14;;;;;;;1.08;0.50;;;20.60;60.60;;;;;;5024874;28;20053;-18
2022/06/06 06:52:55;;;;;;;1.08;0.60;;;20.50;60.30;;;;;;5026460;28;20055;-18
2022/06/06 06:55:54;;;;;;;0.35;0.28;;;20.50;60.70;;;;;;5036780;28;20061;-19
2022/06/06 06:58:38;;;;;;;0.77;0.40;;;20.50;60.80;;;;;;5019497;28;20050;-19
2022/06/06 07:01:08;;;;;;;2.08;0.60;;;20.50;60.70;;;;;;5026618;28;20071;-19
2022/06/06 07:09:46;;;;;;;2.45;1.08;;;20.50;60.90;;;;;;5009535;28;20037;-19
2022/06/06 07:12:36;;;;;;;0.65;0.30;;;20.30;61.50;;;;;;5027223;28;20048;-18
2022/06/06 07:15:08;;;;;;;4.38;0.50;;;20.40;61.40;;;;;;5018270;28;20045;-19
2022/06/06 07:17:50;;;;;;;3.20;0.43;;;20.60;61.00;;;;;;5042408;28;20410;-18
2022/06/06 07:20:16;;;;;;;0.60;0.28;;;20.80;60.50;;;;;;5055587;28;20426;-17
2022/06/06 07:23:12;;;;;;;2.28;0.65;;;20.80;60.10;;;;;;5027131;28;20084;-19
2022/06/06 07:25:45;;;;;;;0.35;0.35;;;21.00;59.90;;;;;;5012128;28;20140;-19
2022/06/06 07:28:24;;;;;;;0.50;0.20;;;21.00;59.70;;;;;;5017741;28;20042;-20
2022/06/06 07:31:17;;;;;;;1.17;0.32;;;21.10;59.50;;;;;;5021054;28;20048;-18
2022/06/06 07:33:58;;;;;;;1.20;0.40;;;21.10;59.60;;;;;;5025896;28;20046;-22
2022/06/06 07:36:49;;;;;;;0.32;0.30;;;21.10;59.60;;;;;;5027708;28;20046;-19
2022/06/06 07:39:27;;;;;;;0.47;0.20;;;21.10;59.70;;;;;;5014320;28;20463;-18
2022/06/06 07:42:15;;;;;;;1.15;0.40;;;21.20;59.60;;;;;;5014183;28;20045;-18
2022/06/06 07:44:56;;;;;;;0.65;0.40;;;21.20;59.30;;;;;;5025532;28;20045;-19
2022/06/06 07:47:28;;;;;;;1.02;0.45;;;21.30;58.90;;;;;;5033550;28;20053;-18
2022/06/06 07:49:58;;;;;;;0.65;0.30;;;21.20;59.10;;;;;;5032914;28;20045;-18
2022/06/06 07:53:03;;;;;;;0.95;0.47;;;21.30;59.20;;;;;;5013483;28;20046;-19
2022/06/06 07:55:31;;;;;;;;;;;21.30;59.10;;;;;;5025501;28;20045;-18
2022/06/06 07:58:11;;;;;;;0.57;0.20;;;21.30;59.10;;;;;;5024628;28;20003;-19
2022/06/06 08:00:37;;;;;;;1.33;0.38;;;21.30;59.00;;;;;;5028224;28;20049;-19
2022/06/06 08:03:19;;;;;;;1.17;0.47;;;21.30;59.00;;;;;;5030748;28;20045;-18
2022/06/06 08:05:56;;;;;;;0.57;0.30;;;21.30;58.60;;;;;;5026832;28;20081;-18
2022/06/06 08:08:28;;;;;;;0.52;0.30;;;21.30;58.40;;;;;;5021894;28;20094;-18
2022/06/06 08:10:54;;;;;;;1.25;0.20;;;21.40;58.30;;;;;;5021607;28;20044;-18
2022/06/06 08:13:45;;;;;;;0.45;0.15;;;21.40;58.00;;;;;;5023286;28;20798;-19
2022/06/06 08:16:22;;;;;;;0.68;0.22;;;21.50;57.70;;;;;;5030674;28;20462;-19
2022/06/06 08:19:22;;;;;;;0.40;0.20;;;21.50;57.70;;;;;;5014529;28;20054;-21
2022/06/06 08:21:49;;;;;;;0.35;0.30;;;21.50;57.80;;;;;;5022006;28;20147;-20
2022/06/06 08:24:17;;;;;;;1.75;0.20;;;21.50;57.60;;;;;;5025901;28;20157;-18
2022/06/06 08:26:42;;;;;;;0.63;0.40;;;21.40;57.40;;;;;;5016812;28;20055;-21
2022/06/06 08:29:08;;;;;;;1.33;0.20;;;21.40;57.40;;;;;;5013224;28;20152;-18
2022/06/06 08:31:34;;;;;;;0.60;0.38;;;21.40;57.30;;;;;;5011732;28;20063;-19
2022/06/06 08:34:00;;;;;;;0.57;0.20;;;21.40;57.20;;;;;;5013841;28;20129;-23
2022/06/06 08:36:49;;;;;;;0.38;0.20;;;21.50;57.10;;;;;;5013502;28;20065;-19
2022/06/06 08:39:39;;;;;;;0.52;0.38;;;21.50;57.00;;;;;;5015190;28;20096;-18
2022/06/06 08:42:10;;;;;;;0.40;0.20;;;21.50;56.40;;;;;;5024027;28;20103;-18
2022/06/06 08:44:51;;;;;;;0.75;0.30;;;21.50;56.60;;;;;;5013972;28;20073;-18
2022/06/06 08:47:30;;;;;;;2.35;0.30;;;21.50;56.40;;;;;;5005981;28;20454;-18
2022/06/06 08:53:12;;;;;;;0.57;0.30;;;21.60;55.90;;;;;;5005028;28;20049;-18
2022/06/06 08:55:47;;;;;;;0.60;0.30;;;21.60;55.90;;;;;;5027427;28;20042;-18
2022/06/06 08:58:25;;;;;;;1.48;0.47;;;21.70;55.90;;;;;;5014036;28;20156;-18
2022/06/06 09:01:16;;;;;;;0.32;0.30;;;21.70;55.80;;;;;;5033379;28;20049;-18
2022/06/06 09:04:21;;;;;;;0.45;0.30;;;21.70;55.90;;;;;;5026942;28;20037;-18
2022/06/06 09:06:53;;;;;;;0.73;0.28;;;21.80;55.90;;;;;;5027452;28;20041;-19
2022/06/06 09:09:56;;;;;;;0.55;0.25;;;21.80;55.90;;;;;;5031998;28;20049;-18
2022/06/06 09:12:31;;;;;;;0.63;0.30;;;21.80;55.70;;;;;;5011323;28;20038;-19
2022/06/06 09:15:49;;;;;;;1.10;0.25;;;21.70;55.60;;;;;;5027471;28;20068;-19
2022/06/06 09:18:28;;;;;;;0.73;0.30;;;21.70;55.40;;;;;;4985510;28;20048;-19
2022/06/06 09:21:12;;;;;;;1.15;0.57;;;21.70;55.50;;;;;;5027122;28;20053;-18
2022/06/06 09:24:15;;;;;;;0.23;0.13;;;21.70;55.20;;;;;;5020366;28;20069;-19
2022/06/06 09:27:08;;;;;;;0.30;0.17;;;21.70;55.00;;;;;;5022719;28;20038;-18
2022/06/06 09:29:48;;;;;;;0.28;0.20;;;21.80;54.90;;;;;;5022609;28;20128;-20
2022/06/06 09:32:40;;;;;;;0.93;0.30;;;21.70;55.50;;;;;;5032665;28;20121;-19
2022/06/06 09:35:24;;;;;;;2.45;0.10;;;21.80;54.50;;;;;;5003010;28;20045;-18
2022/06/06 09:37:59;;;;;;;0.52;0.25;;;21.90;54.60;;;;;;5030625;28;20042;-18
2022/06/06 09:40:51;;;;;;;0.25;0.20;;;21.90;54.70;;;;;;5025216;28;20052;-18
2022/06/06 09:43:54;;;;;;;0.52;0.20;;;21.90;54.50;;;;;;5016143;28;20116;-19
2022/06/06 09:46:33;;;;;;;1.45;0.20;;;22.00;54.30;;;;;;5019342;28;20046;-17
2022/06/06 09:49:39;;;;;;;0.80;0.25;;;22.00;54.50;;;;;;5021566;28;20045;-19
2022/06/06 09:52:38;;;;;;;0.80;0.40;;;22.00;54.40;;;;;;5027015;28;20042;-17
2022/06/06 10:01:13;;;;;;;0.20;0.20;;;22.10;54.70;;;;;;5012836;28;20103;-17
2022/06/06 10:04:16;;;;;;;0.52;0.22;;;22.10;54.80;;;;;;5045356;28;20047;-18
2022/06/06 10:07:06;;;;;;;0.30;0.30;;;22.00;55.00;;;;;;5016248;28;20037;-17
2022/06/06 10:10:03;;;;;;;0.47;0.22;;;22.00;55.10;;;;;;5021612;28;20572;-19
2022/06/06 10:12:56;;;;;;;0.20;0.20;;;22.00;55.30;;;;;;5020586;28;20038;-18
2022/06/06 10:15:38;;;;;;;2.20;0.20;;;22.00;55.30;;;;;;5004568;28;20060;-19
2022/06/06 10:18:31;;;;;;;0.52;0.20;;;22.00;55.50;;;;;;5021177;28;20042;-17
2022/06/06 10:21:17;;;;;;;0.75;0.20;;;22.10;55.60;;;;;;5015989;28;20041;-18
2022/06/06 10:24:04;;;;;;;0.30;0.30;;;22.10;55.40;;;;;;5013084;28;20050;-18
2022/06/06 10:26:38;;;;;;;0.35;0.30;;;22.10;55.50;;;;;;5015486;28;20049;-18
2022/06/06 10:29:22;;;;;;;0.30;0.30;;;22.10;55.60;;;;;;5024067;28;20564;-18
2022/06/06 10:32:30;;;;;;;0.32;0.20;;;22.10;55.80;;;;;;5033819;28;20131;-18
2022/06/06 10:35:36;;;;;;;0.63;0.47;;;22.10;55.80;;;;;;5015651;28;20045;-18
2022/06/06 10:38:45;;;;;;;0.28;0.20;;;22.10;55.80;;;;;;5005679;28;20109;-19
2022/06/06 10:41:54;;;;;;;1.05;0.20;;;22.10;56.00;;;;;;4999405;28;20042;-18
2022/06/06 10:44:41;;;;;;;0.10;0.10;;;22.10;56.00;;;;;;5001816;28;20077;-19
2022/06/06 10:47:12;;;;;;;0.30;0.10;;;22.10;56.10;;;;;;5025856;28;20088;-18
2022/06/06 10:49:43;;;;;;;1.27;0.10;;;22.10;56.00;;;;;;5027504;28;20045;-19
2022/06/06 10:52:21;;;;;;;0.30;0.30;;;22.10;56.10;;;;;;5027770;28;20506;-18
2022/06/06 10:54:52;;;;;;;0.10;0.10;;;22.10;56.00;;;;;;5014794;28;20522;-20
2022/06/06 10:57:41;;;;;;;0.20;0.20;;;22.10;56.00;;;;;;5019458;28;20075;-18
2022/06/06 11:00:22;;;;;;;0.20;0.20;;;22.20;56.00;;;;;;5059377;28;20124;-17
2022/06/06 11:03:09;;;;;;;0.30;0.30;;;22.20;56.10;;;;;;5038012;28;20046;-18
2022/06/06 11:05:44;;;;;;;0.17;0.10;;;22.10;56.20;;;;;;5066219;28;20399;-18
2022/06/06 11:08:28;;;;;;;0.20;0.15;;;22.20;56.20;;;;;;5003570;28;20053;-18
2022/06/06 11:11:30;;;;;;;0.10;0.10;;;22.20;56.20;;;;;;5002476;28;20041;-18
2022/06/06 11:14:05;;;;;;;0.10;0.10;;;22.20;56.30;;;;;;4660893;28;10000047;-18
2022/06/06 11:16:49;;;;;;;0.20;0.10;;;22.20;56.30;;;;;;5009082;28;20052;-19
2022/06/06 11:19:38;;;;;;;0.13;0.10;;;22.20;56.40;;;;;;5007647;28;20110;-19
2022/06/06 11:22:07;;;;;;;0.30;0.10;;;22.20;56.40;;;;;;5010533;28;20049;-19
2022/06/06 11:24:50;;;;;;;0.60;0.28;;;22.20;56.30;;;;;;5000848;28;20367;-18
2022/06/06 11:27:35;;;;;;;1.27;0.35;;;22.20;56.50;;;;;;5020937;28;20108;-19
2022/06/06 11:30:19;;;;;;;0.20;0.10;;;22.20;56.60;;;;;;5025564;28;20049;-19
2022/06/06 11:33:18;;;;;;;0.55;0.20;;;22.20;56.70;;;;;;4996837;28;20049;-18
2022/06/06 11:35:59;;;;;;;0.80;0.20;;;22.20;56.50;;;;;;5008846;28;20045;-17
2022/06/06 11:38:41;;;;;;;0.10;0.10;;;22.20;56.50;;;;;;5008602;28;20053;-18
2022/06/06 11:41:28;;;;;;;0.20;0.20;;;22.20;56.80;;;;;;5011829;28;20034;-19
2022/06/06 11:44:16;;;;;;;1.60;0.10;;;22.30;56.80;;;;;;5003593;28;20050;-18
2022/06/06 11:46:53;;;;;;;0.20;0.20;;;22.30;56.90;;;;;;4998113;28;20037;-17
2022/06/06 11:49:38;;;;;;;0.32;0.15;;;22.30;57.00;;;;;;5000327;28;20046;-18
2022/06/06 11:52:13;;;;;;;0.10;0.10;;;22.30;57.50;;;;;;5008587;28;20525;-19
2022/06/06 11:54:47;;;;;;;0.75;0.30;;;22.30;57.40;;;;;;5006815;28;20050;-19
2022/06/06 11:57:25;;;;;;;0.50;0.30;;;22.30;57.50;;;;;;5010668;28;20079;-18
2022/06/06 12:00:11;;;;;;;0.40;0.20;;;22.30;57.30;;;;;;5023943;28;20042;-18
2022/06/06 12:02:51;;;;;;;0.47;0.10;;;22.30;57.20;;;;;;5030240;28;20064;-18
2022/06/06 12:05:48;;;;;;;1.02;0.40;;;22.40;57.30;;;;;;5013673;28;20060;-19
2022/06/06 12:08:40;;;;;;;0.30;0.10;;;22.40;57.20;;;;;;5003106;28;20052;-19
2022/06/06 12:11:30;;;;;;;6.35;0.40;;;22.40;57.20;;;;;;5002883;28;20050;-18
2022/06/06 12:14:33;;;;;;;0.30;0.10;;;22.40;57.10;;;;;;5002104;28;20060;-18
2022/06/06 12:17:09;;;;;;;0.20;0.20;;;22.40;57.00;;;;;;4997227;28;20049;-18
2022/06/06 12:20:02;;;;;;;0.13;0.13;;;22.50;57.00;;;;;;5028315;28;20041;-18
2022/06/06 12:22:43;;;;;;;0.20;0.20;;;22.40;57.00;;;;;;5006418;28;20042;-18
2022/06/06 12:25:20;;;;;;;0.20;0.20;;;22.40;57.10;;;;;;5011502;28;20077;-18
2022/06/06 12:28:18;;;;;;;0.38;0.30;;;22.40;57.10;;;;;;5030985;28;20052;-18
2022/06/06 12:31:10;;;;;;;0.28;0.20;;;22.50;57.10;;;;;;5016942;28;20049;-19
2022/06/06 12:33:41;;;;;;;0.30;0.10;;;22.40;57.00;;;;;;5033082;28;20130;-18
2022/06/06 12:36:14;;;;;;;0.20;0.20;;;22.50;57.00;;;;;;5030620;28;20049;-18
2022/06/06 12:38:52;;;;;;;1.10;0.10;;;22.50;57.00;;;;;;5011120;28;20049;-19
2022/06/06 12:41:45;;;;;;;1.27;0.10;;;22.50;56.90;;;;;;5013087;28;20069;-18
2022/06/06 12:44:40;;;;;;;1.50;0.32;;;22.50;56.90;;;;;;5015364;28;20064;-18
2022/06/06 12:47:21;;;;;;;0.20;0.20;;;22.50;56.80;;;;;;5005655;28;20046;-22
2022/06/06 12:49:49;;;;;;;0.73;0.30;;;22.50;56.80;;;;;;5001172;28;20046;-20
2022/06/06 12:52:38;;;;;;;0.20;0.10;;;22.50;56.60;;;;;;5007843;28;20133;-19
2022/06/06 12:58:00;;;;;;;0.15;0.15;;;22.50;56.80;;;;;;5016149;28;20038;-18
2022/06/06 13:03:42;;;;;;;0.28;0.25;;;22.40;56.60;;;;;;5031730;28;20124;-23
2022/06/06 13:06:17;;;;;;;0.60;0.20;;;22.40;56.50;;;;;;5018939;28;20065;-19
2022/06/06 13:08:48;;;;;;;0.50;0.20;;;22.50;56.60;;;;;;5017674;28;20041;-20
2022/06/06 13:11:32;;;;;;;1.02;0.50;;;22.40;56.80;;;;;;5028500;28;20049;-18
2022/06/06 13:14:30;;;;;;;2.30;0.28;;;22.40;56.50;;;;;;5026639;28;20042;-18
2022/06/06 13:17:14;;;;;;;0.35;0.20;;;22.40;56.50;;;;;;5027867;28;20049;-18
2022/06/06 13:20:08;;;;;;;0.77;0.30;;;22.50;56.30;;;;;;5028875;28;20131;-19
2022/06/06 13:22:34;;;;;;;0.43;0.20;;;22.40;56.30;;;;;;5030922;28;20049;-17
2022/06/06 13:24:59;;;;;;;1.85;0.40;;;22.40;56.00;;;;;;5006020;28;20073;-18
2022/06/06 13:27:49;;;;;;;2.13;0.20;;;22.40;56.30;;;;;;5020685;28;20076;-19
2022/06/06 13:30:27;;;;;;;0.38;0.10;;;22.40;56.40;;;;;;5022367;28;20124;-18
2022/06/06 13:33:12;;;;;;;0.30;0.10;;;22.40;56.20;;;;;;5006248;28;20133;-19
2022/06/06 13:35:56;;;;;;;0.30;0.22;;;22.50;56.50;;;;;;5006727;28;20586;-18
2022/06/06 13:38:44;;;;;;;1.00;0.25;;;22.50;56.50;;;;;;5013965;28;20047;-19
2022/06/06 13:41:16;;;;;;;0.10;0.10;;;22.50;56.50;;;;;;5019904;28;20575;-19
2022/06/06 13:43:56;;;;;;;0.82;0.30;;;22.50;56.60;;;;;;5024997;28;20091;-18
2022/06/06 13:46:38;;;;;;;0.52;0.32;;;22.60;56.60;;;;;;5010204;28;20099;-21
2022/06/06 13:49:19;;;;;;;0.10;0.10;;;22.50;56.60;;;;;;5021658;28;20077;-19
2022/06/06 13:52:12;;;;;;;0.40;0.35;;;22.60;56.60;;;;;;5008266;28;20625;-19
2022/06/06 13:54:38;;;;;;;0.30;0.10;;;22.60;56.90;;;;;;5021850;28;20049;-18
2022/06/06 13:57:31;;;;;;;0.20;0.20;;;22.60;57.00;;;;;;5028881;28;20074;-20
2022/06/06 14:00:16;;;;;;;0.85;0.10;;;22.60;57.10;;;;;;5039704;28;20046;-19
2022/06/06 14:02:58;;;;;;;0.60;0.20;;;22.60;57.00;;;;;;5029978;28;20064;-19
2022/06/06 14:06:00;;;;;;;0.52;0.13;;;22.60;57.00;;;;;;5008363;28;20042;-20
2022/06/06 14:08:27;;;;;;;0.20;0.17;;;22.60;57.00;;;;;;5022654;28;20133;-17
2022/06/06 14:10:58;;;;;;;0.20;0.10;;;22.60;57.10;;;;;;5012037;28;20045;-20